Time;durP1;ratioP1;P1;durP2;ratioP2;P2;SDS_P1;SDS_P2;PMS_P1;PMS_P2;Temp;Humidity;BMP_temperature;BMP_pressure;BME280_temperature;BME280_humidity;BME280_pressure;Samples;Min_cycle;Max_cycle;Signal;HPM_P1;HPM_P2
2022/08/23 00:00:32;;;;;;;0.00;0.00;;;;;;;23.16;59.15;100303.88;7363648;19;20023;-64
2022/08/23 00:02:57;;;;;;;0.00;0.00;;;;;;;23.16;58.62;100309.22;7360959;19;20439;-63
2022/08/23 00:05:23;;;;;;;0.00;0.00;;;;;;;23.13;59.23;100296.16;7364790;19;20034;-64
2022/08/23 00:07:48;;;;;;;0.00;0.00;;;;;;;23.12;59.14;100291.81;7360387;19;20589;-64
2022/08/23 00:10:15;;;;;;;0.00;0.00;;;;;;;23.14;59.42;100305.00;7358483;19;20521;-64
2022/08/23 00:12:42;;;;;;;0.00;0.00;;;;;;;23.05;59.33;100290.59;7357530;19;20685;-64
2022/08/23 00:15:09;;;;;;;0.00;0.00;;;;;;;23.10;59.29;100304.41;7353730;19;20106;-64
2022/08/23 00:17:35;;;;;;;;;;;;;;;23.14;57.27;100307.66;7356108;19;20350;-64
2022/08/23 00:20:06;;;;;;;0.00;0.00;;;;;;;23.12;58.50;100314.94;7356774;19;19914;-64
2022/08/23 00:22:32;;;;;;;0.00;0.00;;;;;;;23.09;59.46;100307.19;7356045;19;20014;-64
2022/08/23 00:24:58;;;;;;;0.00;0.00;;;;;;;23.07;59.33;100310.00;7358628;19;20636;-63
2022/08/23 00:27:23;;;;;;;0.10;0.10;;;;;;;23.05;59.32;100307.44;7361369;19;20069;-64
2022/08/23 00:29:51;;;;;;;0.00;0.00;;;;;;;23.05;59.21;100307.44;7363252;19;20025;-63
2022/08/23 00:32:26;;;;;;;0.00;0.00;;;;;;;23.08;59.21;100308.16;7361341;19;20025;-63
2022/08/23 00:34:52;;;;;;;0.00;0.00;;;;;;;23.05;59.56;100304.78;7361210;19;20025;-64
2022/08/23 00:37:19;;;;;;;0.10;0.10;;;;;;;23.05;59.92;100302.09;7361879;19;20014;-64
2022/08/23 00:39:44;;;;;;;0.03;0.03;;;;;;;23.05;59.96;100311.91;7357534;19;20047;-64
2022/08/23 00:47:49;;;;;;;0.00;0.00;;;;;;;23.07;60.08;100311.81;7261237;19;2004396;-64
2022/08/23 00:50:58;;;;;;;0.00;0.00;;;;;;;23.09;58.49;100312.53;7360904;19;20082;-64
2022/08/23 00:53:31;;;;;;;0.03;0.03;;;;;;;23.04;59.77;100313.72;7260173;19;2004444;-64
2022/08/23 00:56:02;;;;;;;0.00;0.00;;;;;;;23.07;59.29;100309.16;7362444;19;20010;-63
2022/08/23 00:58:29;;;;;;;0.00;0.00;;;;;;;22.98;60.06;100302.75;7362693;19;20014;-64
2022/08/23 01:00:57;;;;;;;0.07;0.07;;;;;;;23.01;60.46;100306.00;7360272;19;20043;-63
2022/08/23 01:03:25;;;;;;;0.03;0.03;;;;;;;23.03;60.60;100300.56;7362497;19;20447;-64
2022/08/23 01:05:57;;;;;;;0.00;0.00;;;;;;;23.02;59.25;100298.88;7360242;19;20011;-64
2022/08/23 01:08:25;;;;;;;0.00;0.00;;;;;;;23.01;59.45;100289.16;7360897;19;20022;-64
2022/08/23 01:10:59;;;;;;;0.00;0.00;;;;;;;22.98;59.78;100295.59;7361001;19;20010;-64
2022/08/23 01:13:34;;;;;;;0.00;0.00;;;;;;;22.97;59.80;100293.91;7361031;19;20006;-64
2022/08/23 01:16:06;;;;;;;0.10;0.10;;;;;;;22.85;60.26;100272.72;7359369;19;20049;-64
2022/08/23 01:18:32;;;;;;;0.00;0.00;;;;;;;22.92;60.76;100282.78;7361331;19;20015;-64
2022/08/23 01:21:17;;;;;;;0.00;0.00;;;;;;;22.91;60.62;100277.56;7362290;19;20026;-63
2022/08/23 01:23:46;;;;;;;0.03;0.03;;;;;;;22.89;60.36;100275.03;7360512;19;20480;-64
2022/08/23 01:26:13;;;;;;;0.00;0.00;;;;;;;22.83;60.70;100272.00;7359387;19;20027;-64
2022/08/23 01:28:39;;;;;;;0.00;0.00;;;;;;;22.77;60.54;100265.34;7362937;19;20019;-63
2022/08/23 01:31:08;;;;;;;0.00;0.00;;;;;;;22.78;60.69;100277.69;7361999;19;20011;-64
2022/08/23 01:33:35;;;;;;;0.00;0.00;;;;;;;22.76;59.83;100282.31;7359788;19;20011;-64
2022/08/23 01:36:07;;;;;;;0.00;0.00;;;;;;;22.65;59.68;100266.31;7360194;19;20023;-64
2022/08/23 01:38:33;;;;;;;0.00;0.00;;;;;;;22.66;60.44;100278.69;7360850;19;20017;-64
2022/08/23 01:40:58;;;;;;;0.00;0.00;;;;;;;22.59;60.61;100274.81;7359443;19;20425;-64
2022/08/23 01:43:24;;;;;;;0.00;0.00;;;;;;;22.57;60.22;100279.41;7360935;19;20050;-63
2022/08/23 01:45:51;;;;;;;0.00;0.00;;;;;;;22.52;60.50;100280.63;7361798;19;20010;-64
2022/08/23 01:48:18;;;;;;;0.10;0.10;;;;;;;22.47;59.88;100285.47;7361793;19;20010;-64
2022/08/23 01:50:44;;;;;;;0.00;0.00;;;;;;;22.43;59.95;100283.16;7360854;19;20055;-63
2022/08/23 01:53:11;;;;;;;0.00;0.00;;;;;;;22.38;60.26;100280.84;7359761;19;20035;-64
2022/08/23 01:55:38;;;;;;;0.00;0.00;;;;;;;22.32;60.50;100291.97;7360460;19;20039;-63
2022/08/23 01:58:06;;;;;;;0.00;0.00;;;;;;;22.27;60.28;100304.78;7351799;19;20011;-64
2022/08/23 02:00:34;;;;;;;0.00;0.00;;;;;;;;;;7361663;19;20025;-64
2022/08/23 02:03:00;;;;;;;0.00;0.00;;;;;;;22.18;60.17;100316.13;7358254;19;20059;-63
2022/08/23 02:05:27;;;;;;;0.00;0.00;;;;;;;22.13;60.59;100323.63;7358717;19;20014;-64
2022/08/23 02:07:52;;;;;;;0.10;0.10;;;;;;;22.08;61.18;100317.78;7359803;19;20026;-63
2022/08/23 02:10:18;;;;;;;0.00;0.00;;;;;;;22.03;61.31;100315.47;7359643;19;20018;-64
2022/08/23 02:12:45;;;;;;;0.00;0.00;;;;;;;21.99;61.20;100304.22;7356819;19;20014;-64
2022/08/23 02:15:11;;;;;;;0.00;0.00;;;;;;;21.94;61.83;100303.72;7359779;19;20121;-64
2022/08/23 02:17:37;;;;;;;0.00;0.00;;;;;;;21.95;61.97;100313.41;7361239;19;20015;-64
2022/08/23 02:20:04;;;;;;;0.00;0.00;;;;;;;21.93;61.89;100317.97;7358091;19;20036;-64
2022/08/23 02:22:30;;;;;;;0.00;0.00;;;;;;;21.90;61.77;100309.41;7362444;19;20782;-64
2022/08/23 02:24:55;;;;;;;0.05;0.05;;;;;;;21.79;62.11;100286.28;7358380;19;20014;-64
2022/08/23 02:27:21;;;;;;;0.00;0.00;;;;;;;21.86;62.05;100303.47;7361435;19;20029;-64
2022/08/23 02:29:46;;;;;;;0.00;0.00;;;;;;;21.84;62.33;100308.03;7354041;19;20446;-64
2022/08/23 02:32:15;;;;;;;0.05;0.05;;;;;;;21.76;62.04;100283.88;7358992;19;20024;-63
2022/08/23 02:34:41;;;;;;;0.00;0.00;;;;;;;21.83;62.74;100306.34;7359942;19;20007;-64
2022/08/23 02:37:09;;;;;;;0.00;0.00;;;;;;;21.82;62.40;100296.69;7358004;19;20723;-64
2022/08/23 02:39:34;;;;;;;;;;;;;;;21.85;59.52;100288.50;7361572;19;20099;-64
2022/08/23 02:42:00;;;;;;;0.03;0.03;;;;;;;21.79;62.74;100283.63;7360332;19;19990;-63
2022/08/23 02:44:26;;;;;;;0.00;0.00;;;;;;;21.77;62.84;100282.91;7359658;19;20003;-64
2022/08/23 02:46:51;;;;;;;0.10;0.10;;;;;;;21.75;63.39;100293.66;7358152;19;20006;-64
2022/08/23 02:49:17;;;;;;;0.00;0.00;;;;;;;21.75;62.90;100303.44;7360671;19;20851;-64
2022/08/23 02:51:43;;;;;;;0.00;0.00;;;;;;;21.65;62.65;100283.84;7355480;19;20007;-64
2022/08/23 02:54:09;;;;;;;0.00;0.00;;;;;;;21.74;62.99;100301.72;7359150;19;20021;-63
2022/08/23 02:56:35;;;;;;;0.00;0.00;;;;;;;21.72;62.80;100301.84;7354151;19;20799;-64
2022/08/23 02:59:01;;;;;;;0.08;0.08;;;;;;;21.74;63.19;100296.41;7359332;19;20006;-64
2022/08/23 03:01:30;;;;;;;0.00;0.00;;;;;;;21.75;62.92;100300.78;7358810;19;20003;-64
2022/08/23 03:03:57;;;;;;;0.10;0.10;;;;;;;21.75;63.05;100298.13;7347400;19;20526;-64
2022/08/23 03:06:22;;;;;;;0.00;0.00;;;;;;;21.75;62.73;100308.78;7357627;19;20022;-64
2022/08/23 03:08:48;;;;;;;0.00;0.00;;;;;;;21.78;62.71;100311.19;7357493;19;20070;-64
2022/08/23 03:11:17;;;;;;;0.00;0.00;;;;;;;21.74;62.85;100296.41;7358131;19;20046;-62
2022/08/23 03:13:44;;;;;;;0.00;0.00;;;;;;;21.79;62.73;100304.03;7358731;19;20021;-63
2022/08/23 03:16:11;;;;;;;0.10;0.10;;;;;;;21.81;63.03;100312.78;7359242;19;20010;-64
2022/08/23 03:18:37;;;;;;;0.00;0.00;;;;;;;21.81;63.04;100308.28;7351214;19;20018;-63
2022/08/23 03:21:04;;;;;;;0.00;0.00;;;;;;;21.74;63.08;100291.09;7359346;19;20035;-64
2022/08/23 03:23:33;;;;;;;0.10;0.10;;;;;;;21.82;62.85;100303.81;7358464;19;20503;-64
2022/08/23 03:26:01;;;;;;;0.03;0.03;;;;;;;21.83;62.60;100300.19;7365696;19;20027;-65
2022/08/23 03:28:28;;;;;;;0.10;0.10;;;;;;;21.82;62.92;100302.00;7367114;19;20011;-64
2022/08/23 03:30:54;;;;;;;0.00;0.00;;;;;;;21.83;62.74;100298.38;7361777;19;20018;-64
2022/08/23 03:33:20;;;;;;;0.05;0.05;;;;;;;21.84;62.34;100308.03;7367997;19;20626;-64
2022/08/23 03:35:46;;;;;;;0.00;0.00;;;;;;;21.83;62.84;100306.34;7368158;19;20006;-64
2022/08/23 03:38:12;;;;;;;0.00;0.00;;;;;;;21.81;62.40;100292.34;7367697;19;20003;-64
2022/08/23 03:40:38;;;;;;;0.00;0.00;;;;;;;21.79;62.84;100299.56;7364940;19;20010;-64
2022/08/23 03:43:04;;;;;;;0.10;0.10;;;;;;;21.77;62.85;100302.34;7366851;19;20006;-64
2022/08/23 03:45:29;;;;;;;0.00;0.00;;;;;;;21.76;62.79;100305.13;7367299;19;20014;-64
2022/08/23 03:47:55;;;;;;;0.00;0.00;;;;;;;21.75;62.97;100298.13;7367871;19;20018;-64
2022/08/23 03:50:20;;;;;;;0.00;0.00;;;;;;;21.74;62.77;100302.56;7364120;19;20106;-64
2022/08/23 03:52:46;;;;;;;0.00;0.00;;;;;;;21.60;63.06;100289.50;7366318;19;20086;-64
2022/08/23 03:55:12;;;;;;;0.00;0.00;;;;;;;21.71;63.01;100307.31;7366836;19;20015;-64
2022/08/23 03:57:38;;;;;;;0.00;0.00;;;;;;;21.71;63.05;100301.97;7365940;19;20033;-64
2022/08/23 04:00:06;;;;;;;0.00;0.00;;;;;;;21.71;63.09;100307.31;7367686;19;20014;-64
2022/08/23 04:02:32;;;;;;;0.00;0.00;;;;;;;21.69;63.20;100298.56;7366144;19;20485;-63
2022/08/23 04:04:58;;;;;;;0.00;0.00;;;;;;;21.68;63.61;100302.19;7366799;19;20010;-64
2022/08/23 04:07:23;;;;;;;0.00;0.00;;;;;;;21.68;62.99;100296.88;7366901;19;20026;-64
2022/08/23 04:09:49;;;;;;;0.00;0.00;;;;;;;21.68;62.89;100296.88;7366881;19;20019;-64
2022/08/23 04:12:14;;;;;;;0.00;0.00;;;;;;;21.66;63.04;100301.47;7363821;19;20027;-63
2022/08/23 04:14:40;;;;;;;0.00;0.00;;;;;;;21.63;62.66;100302.53;7368548;19;20078;-64
2022/08/23 04:17:05;;;;;;;0.00;0.00;;;;;;;21.61;62.82;100306.28;7365105;19;20855;-64
2022/08/23 04:19:31;;;;;;;0.00;0.00;;;;;;;21.55;62.56;100290.81;7367540;19;20010;-64
2022/08/23 04:21:56;;;;;;;0.10;0.10;;;;;;;21.44;62.58;100288.94;7364440;19;20025;-64
2022/08/23 04:24:23;;;;;;;0.00;0.00;;;;;;;21.46;63.29;100303.81;7367369;19;20548;-64
2022/08/23 04:26:48;;;;;;;0.00;0.00;;;;;;;21.40;62.87;100304.28;7362253;19;23468;-65
2022/08/23 04:29:15;;;;;;;0.00;0.00;;;;;;;21.38;62.79;100303.53;7366938;19;20038;-64
2022/08/23 04:31:42;;;;;;;0.00;0.00;;;;;;;21.34;63.19;100304.75;7363353;19;20014;-63
2022/08/23 04:34:08;;;;;;;0.00;0.00;;;;;;;21.30;62.68;100294.41;7367678;19;20018;-64
2022/08/23 04:36:37;;;;;;;0.00;0.00;;;;;;;21.27;62.52;100297.28;7363525;19;20019;-64
2022/08/23 04:39:04;;;;;;;0.00;0.00;;;;;;;21.20;63.44;100299.56;7365802;19;20530;-64
2022/08/23 04:44:14;;;;;;;0.00;0.00;;;;;;;21.09;63.69;100308.31;7367321;19;20025;-64
2022/08/23 04:46:42;;;;;;;0.00;0.00;;;;;;;21.05;63.30;100300.69;7363011;19;21295;-64
2022/08/23 04:49:08;;;;;;;0.00;0.00;;;;;;;20.94;63.72;100286.38;7365648;19;20674;-64
2022/08/23 04:51:33;;;;;;;0.10;0.10;;;;;;;20.93;63.75;100305.91;7365218;19;20014;-65
2022/08/23 04:53:59;;;;;;;0.00;0.00;;;;;;;20.91;64.03;100299.84;7365849;19;20038;-64
2022/08/23 04:56:24;;;;;;;0.00;0.00;;;;;;;20.90;63.69;100300.81;7365436;19;20034;-64
2022/08/23 04:58:50;;;;;;;0.00;0.00;;;;;;;20.87;64.36;100297.53;7365591;19;20466;-64
2022/08/23 05:01:15;;;;;;;0.10;0.10;;;;;;;20.85;63.83;100302.97;7365132;19;20014;-64
2022/08/23 05:03:44;;;;;;;0.00;0.00;;;;;;;20.73;64.00;100293.19;7362776;19;20003;-64
2022/08/23 05:06:09;;;;;;;0.00;0.00;;;;;;;20.77;64.03;100310.59;7364177;19;20509;-63
2022/08/23 05:08:34;;;;;;;0.03;0.03;;;;;;;20.78;64.40;100311.44;7366597;19;20026;-64
2022/08/23 05:11:02;;;;;;;0.00;0.00;;;;;;;20.77;64.38;100309.75;7363604;19;20027;-64
2022/08/23 05:13:29;;;;;;;0.00;0.00;;;;;;;20.74;64.08;100313.50;7366001;19;20042;-64
2022/08/23 05:15:54;;;;;;;0.00;0.00;;;;;;;20.71;64.14;100311.06;7364718;19;20083;-63
2022/08/23 05:18:20;;;;;;;0.00;0.00;;;;;;;20.63;64.11;100302.78;7364955;19;20551;-64
2022/08/23 05:20:45;;;;;;;0.00;0.00;;;;;;;20.69;65.02;100323.59;7363791;19;20022;-64
2022/08/23 05:23:11;;;;;;;0.00;0.00;;;;;;;20.68;64.59;100332.47;7365212;19;20010;-64
2022/08/23 05:25:48;;;;;;;0.00;0.00;;;;;;;20.67;64.66;100338.75;7363204;19;20103;-64
2022/08/23 05:28:15;;;;;;;0.00;0.00;;;;;;;20.63;64.84;100334.63;7366523;19;20018;-63
2022/08/23 05:30:41;;;;;;;0.10;0.10;;;;;;;20.67;64.77;100342.25;7363110;19;20050;-64
2022/08/23 05:33:06;;;;;;;0.05;0.05;;;;;;;20.67;65.15;100336.09;7365709;19;20955;-64
2022/08/23 05:35:32;;;;;;;0.00;0.00;;;;;;;20.68;64.85;100343.09;7362868;19;20010;-62
2022/08/23 05:38:00;;;;;;;0.00;0.00;;;;;;;20.68;64.75;100343.09;7365787;19;20446;-63
2022/08/23 05:40:27;;;;;;;0.00;0.00;;;;;;;20.69;64.85;100350.13;7362838;19;20728;-63
2022/08/23 05:42:53;;;;;;;0.00;0.00;;;;;;;20.63;64.56;100339.91;7365516;19;20352;-63
2022/08/23 05:45:18;;;;;;;0.03;0.03;;;;;;;20.71;64.37;100353.50;7361667;19;20010;-63
2022/08/23 05:47:45;;;;;;;0.00;0.00;;;;;;;20.70;64.53;100349.16;7361850;19;20007;-63
2022/08/23 05:50:11;;;;;;;0.00;0.00;;;;;;;20.62;64.40;100343.53;7364912;19;20017;-64
2022/08/23 05:52:37;;;;;;;0.00;0.00;;;;;;;20.72;64.81;100357.84;7364994;19;20030;-64
2022/08/23 05:55:03;;;;;;;0.00;0.00;;;;;;;20.74;64.03;100363.91;7361273;19;20003;-64
2022/08/23 05:57:29;;;;;;;0.00;0.00;;;;;;;20.74;64.13;100363.91;7363733;19;20041;-63
2022/08/23 05:59:54;;;;;;;0.00;0.00;;;;;;;20.73;64.16;100362.19;7352418;19;20014;-63
2022/08/23 06:02:19;;;;;;;0.10;0.10;;;;;;;20.75;64.45;100370.06;7362003;19;20014;-63
2022/08/23 06:04:45;;;;;;;0.00;0.00;;;;;;;20.67;63.86;100362.63;7359878;19;20014;-63
2022/08/23 06:07:10;;;;;;;0.00;0.00;;;;;;;20.74;64.00;100377.19;7359240;19;20010;-63
2022/08/23 06:09:36;;;;;;;0.03;0.03;;;;;;;20.73;63.71;100375.47;7359867;19;20014;-63
2022/08/23 06:12:01;;;;;;;0.00;0.00;;;;;;;20.72;64.45;100379.06;7361635;19;20011;-63
2022/08/23 06:14:27;;;;;;;0.10;0.10;;;;;;;20.71;64.15;100374.72;7360063;19;20130;-63
2022/08/23 06:16:52;;;;;;;0.00;0.00;;;;;;;20.68;63.74;100374.94;7360938;19;20010;-64
2022/08/23 06:19:18;;;;;;;0.00;0.00;;;;;;;20.70;64.35;100384.50;7361491;19;20035;-63
2022/08/23 06:21:44;;;;;;;0.00;0.00;;;;;;;20.71;63.82;100385.34;7357642;19;20103;-63
2022/08/23 06:24:11;;;;;;;0.00;0.00;;;;;;;20.70;63.88;100386.31;7359765;19;20286;-63
2022/08/23 06:26:39;;;;;;;0.10;0.10;;;;;;;20.72;63.86;100389.69;7357713;19;20006;-64
2022/08/23 06:29:08;;;;;;;0.00;0.00;;;;;;;20.73;63.87;100386.06;7354670;19;20010;-64
2022/08/23 06:31:46;;;;;;;0.00;0.00;;;;;;;20.73;63.44;100388.72;7359365;19;20011;-64
2022/08/23 06:34:32;;;;;;;;;;;;;;;20.75;62.08;100386.84;7362886;19;20348;-64
2022/08/23 06:37:01;;;;;;;0.00;0.00;;;;;;;20.72;63.88;100389.69;7360092;19;19922;-63
2022/08/23 06:39:28;;;;;;;0.00;0.00;;;;;;;20.65;63.78;100380.47;7361810;19;20418;-64
2022/08/23 06:42:01;;;;;;;;;;;;;;;20.79;61.82;100398.94;7360039;19;20586;-63
2022/08/23 06:44:28;;;;;;;0.00;0.00;;;;;;;20.67;64.20;100390.00;7358901;19;19911;-63
2022/08/23 06:46:56;;;;;;;0.00;0.00;;;;;;;20.76;64.33;100399.16;7360053;19;20011;-64
2022/08/23 06:49:22;;;;;;;;;;;;;;;20.85;61.94;100397.66;7358572;19;20002;-64
2022/08/23 06:51:50;;;;;;;0.00;0.00;;;;;;;20.85;63.46;100402.97;7356055;19;19914;-63
2022/08/23 06:54:19;;;;;;;0.00;0.00;;;;;;;20.87;64.04;100404.53;7359025;19;20014;-63
2022/08/23 06:56:45;;;;;;;0.00;0.00;;;;;;;20.89;63.81;100401.81;7360722;19;20031;-63
2022/08/23 06:59:11;;;;;;;0.00;0.00;;;;;;;20.90;63.62;100396.38;7360685;19;20415;-63
2022/08/23 07:01:41;;;;;;;0.00;0.00;;;;;;;20.93;63.40;100404.13;7365380;19;20022;-63
2022/08/23 07:04:09;;;;;;;0.10;0.10;;;;;;;20.90;63.20;100399.03;7366609;19;20018;-64
2022/08/23 07:06:37;;;;;;;0.08;0.08;;;;;;;20.84;63.64;100394.16;7359062;19;20020;-62
2022/08/23 07:09:04;;;;;;;0.10;0.10;;;;;;;20.93;64.05;100412.09;7363535;19;20015;-63
2022/08/23 07:11:31;;;;;;;0.00;0.00;;;;;;;20.94;63.52;100416.44;7360547;19;20007;-64
2022/08/23 07:13:59;;;;;;;;;;;;;;;21.06;61.76;100411.22;7361279;19;20031;-63
2022/08/23 07:16:34;;;;;;;0.00;0.00;;;;;;;21.07;62.88;100411.09;7360135;19;19939;-63
2022/08/23 07:19:00;;;;;;;0.00;0.00;;;;;;;21.06;63.37;100411.22;7364349;19;20035;-64
2022/08/23 07:21:26;;;;;;;0.03;0.03;;;;;;;21.02;63.47;100404.41;7365694;19;20010;-63
2022/08/23 07:23:52;;;;;;;0.00;0.00;;;;;;;21.14;62.95;100424.81;7356780;19;20010;-63
2022/08/23 07:26:18;;;;;;;0.03;0.03;;;;;;;21.18;63.10;100426.25;7365334;19;20035;-61
2022/08/23 07:28:44;;;;;;;0.00;0.00;;;;;;;21.22;62.77;100433.06;7362889;19;20015;-64
2022/08/23 07:31:19;;;;;;;0.00;0.00;;;;;;;21.28;62.88;100437.94;7363398;19;20873;-62
2022/08/23 07:33:46;;;;;;;0.00;0.00;;;;;;;21.21;62.97;100434.03;7366102;19;20015;-63
2022/08/23 07:36:15;;;;;;;0.00;0.00;;;;;;;21.35;63.28;100439.25;7366968;19;20047;-63
2022/08/23 07:38:41;;;;;;;0.00;0.00;;;;;;;21.24;63.30;100421.38;7367520;19;20460;-63
2022/08/23 07:41:07;;;;;;;0.00;0.00;;;;;;;21.36;62.87;100440.94;7365722;19;20659;-64
2022/08/23 07:43:33;;;;;;;0.00;0.00;;;;;;;21.37;62.78;100442.63;7364323;19;20017;-63
2022/08/23 07:45:59;;;;;;;0.00;0.00;;;;;;;21.32;62.53;100434.13;7365697;19;20025;-64
2022/08/23 07:48:24;;;;;;;0.00;0.00;;;;;;;21.42;62.79;100440.47;7366524;19;20119;-64
2022/08/23 07:50:57;;;;;;;0.00;0.00;;;;;;;21.48;62.47;100442.69;7365987;19;20082;-63
2022/08/23 07:53:23;;;;;;;0.00;0.00;;;;;;;21.51;62.28;100449.59;7365626;19;20835;-63
2022/08/23 07:55:50;;;;;;;0.00;0.00;;;;;;;21.53;61.85;100446.81;7366978;19;22173;-63
2022/08/23 07:58:16;;;;;;;0.00;0.00;;;;;;;21.50;62.08;100438.13;7357516;19;20016;-63
2022/08/23 08:00:41;;;;;;;0.00;0.00;;;;;;;21.65;62.57;100459.25;7364205;19;20010;-63
2022/08/23 08:03:08;;;;;;;0.00;0.00;;;;;;;21.61;62.11;100439.16;7362853;19;20047;-63
2022/08/23 08:05:34;;;;;;;0.00;0.00;;;;;;;21.81;61.78;100446.53;7363085;19;21051;-63
2022/08/23 08:08:01;;;;;;;0.03;0.03;;;;;;;21.92;61.27;100461.69;7362973;19;20039;-63
2022/08/23 08:10:26;;;;;;;0.05;0.05;;;;;;;22.02;61.71;100462.69;7361808;19;20014;-64
2022/08/23 08:12:51;;;;;;;0.10;0.10;;;;;;;22.15;61.14;100465.31;7362859;19;20070;-64
2022/08/23 08:15:18;;;;;;;0.00;0.00;;;;;;;22.28;60.93;100466.09;7363338;19;20039;-63
2022/08/23 08:17:47;;;;;;;0.00;0.00;;;;;;;22.46;60.95;100469.19;7361378;19;20967;-63
2022/08/23 08:20:14;;;;;;;0.10;0.10;;;;;;;22.58;59.66;100475.38;7363292;19;20010;-63
2022/08/23 08:22:40;;;;;;;0.10;0.10;;;;;;;22.71;59.33;100478.81;7363908;19;20014;-64
2022/08/23 08:25:06;;;;;;;0.00;0.00;;;;;;;22.75;59.29;100472.25;7364442;19;20070;-64
2022/08/23 08:27:32;;;;;;;0.00;0.00;;;;;;;22.85;57.48;100469.72;7366368;19;20021;-64
2022/08/23 08:29:57;;;;;;;0.00;0.00;;;;;;;23.01;57.64;100488.91;7364754;19;20333;-63
2022/08/23 08:32:23;;;;;;;0.00;0.00;;;;;;;23.12;56.48;100498.75;7368178;19;20014;-63
2022/08/23 08:34:48;;;;;;;0.10;0.10;;;;;;;23.16;56.50;100489.50;7363963;19;20018;-64
2022/08/23 08:37:14;;;;;;;0.00;0.00;;;;;;;23.22;56.17;100494.38;7365565;19;20086;-63
2022/08/23 08:39:45;;;;;;;0.00;0.00;;;;;;;23.27;55.80;100500.19;7365920;19;20051;-64
2022/08/23 08:42:11;;;;;;;0.00;0.00;;;;;;;23.27;55.33;100492.19;7366528;19;20018;-63
2022/08/23 08:44:45;;;;;;;0.03;0.03;;;;;;;23.28;55.99;100497.41;7365642;19;20043;-63
2022/08/23 08:47:36;;;;;;;0.08;0.08;;;;;;;23.28;56.27;100499.22;7364732;19;20483;-63
2022/08/23 08:50:05;;;;;;;0.03;0.03;;;;;;;23.23;56.26;100493.41;7364618;19;20015;-63
2022/08/23 08:52:51;;;;;;;0.10;0.10;;;;;;;23.28;57.13;100493.88;7365618;19;20040;-64
2022/08/23 08:55:24;;;;;;;0.00;0.00;;;;;;;23.33;56.50;100497.03;7364687;19;20022;-64
2022/08/23 08:57:52;;;;;;;0.00;0.00;;;;;;;23.41;56.04;100491.94;7364334;19;22166;-64
2022/08/23 09:00:28;;;;;;;0.00;0.00;;;;;;;23.61;56.19;100493.00;7365100;19;20006;-64
2022/08/23 09:02:57;;;;;;;0.10;0.10;;;;;;;23.70;55.77;100483.44;7361896;19;20002;-63
2022/08/23 09:05:38;;;;;;;0.00;0.00;;;;;;;23.90;55.97;100489.84;7360128;19;20011;-63
2022/08/23 09:08:31;;;;;;;0.00;0.00;;;;;;;24.00;56.14;100488.94;7363905;19;20473;-63
2022/08/23 09:11:27;;;;;;;0.00;0.00;;;;;;;24.10;55.32;100488.19;7261243;19;2004543;-63
2022/08/23 09:14:13;;;;;;;0.00;0.00;;;;;;;24.22;55.55;100495.16;7261968;19;2004470;-64
2022/08/23 09:17:02;;;;;;;0.00;0.00;;;;;;;24.27;54.98;100501.81;7363331;19;20013;-63
2022/08/23 09:19:32;;;;;;;0.00;0.00;;;;;;;24.25;53.81;100508.28;7361889;19;20014;-63
2022/08/23 09:22:00;;;;;;;0.00;0.00;;;;;;;24.16;52.67;100490.34;7363642;19;20011;-63
2022/08/23 09:24:26;;;;;;;0.10;0.10;;;;;;;24.08;53.51;100504.34;7364166;19;20039;-64
2022/08/23 09:26:52;;;;;;;0.00;0.00;;;;;;;24.02;53.23;100505.66;7360107;19;20822;-63
2022/08/23 09:29:21;;;;;;;0.00;0.00;;;;;;;23.97;53.52;100507.84;7364258;19;20014;-63
2022/08/23 09:32:24;;;;;;;0.00;0.00;;;;;;;23.98;54.40;100517.59;7365265;19;20043;-63
2022/08/23 09:35:03;;;;;;;0.00;0.00;;;;;;;23.89;53.63;100515.66;7261678;19;2004188;-63
2022/08/23 09:37:29;;;;;;;0.00;0.00;;;;;;;23.84;53.38;100517.00;7363592;19;20022;-63
2022/08/23 09:40:24;;;;;;;0.00;0.00;;;;;;;23.85;53.79;100522.22;7364452;19;20455;-63
2022/08/23 09:43:27;;;;;;;0.00;0.00;;;;;;;23.80;54.46;100513.72;7260217;19;2004276;-64
2022/08/23 09:45:52;;;;;;;0.00;0.00;;;;;;;23.71;53.68;100514.47;7254136;19;2004303;-63
2022/08/23 09:48:38;;;;;;;0.10;0.10;;;;;;;23.75;54.25;100522.09;7357475;19;20007;-64
2022/08/23 09:51:32;;;;;;;0.00;0.00;;;;;;;23.80;54.02;100521.72;7362286;19;20070;-63
2022/08/23 09:54:10;;;;;;;0.00;0.00;;;;;;;23.86;54.66;100510.56;7261591;19;2004751;-63
2022/08/23 09:56:43;;;;;;;0.00;0.00;;;;;;;23.99;54.06;100515.75;7362275;19;20011;-63
2022/08/23 09:59:24;;;;;;;0.00;0.00;;;;;;;24.33;54.59;100516.47;7362914;19;20105;-63
2022/08/23 10:01:52;;;;;;;0.00;0.00;;;;;;;24.58;52.26;100513.50;7361848;19;20021;-64
2022/08/23 10:04:28;;;;;;;0.03;0.03;;;;;;;24.89;53.17;100513.56;7363445;19;20030;-63
2022/08/23 10:06:54;;;;;;;0.10;0.10;;;;;;;24.97;51.53;100513.72;7363925;19;20018;-63
2022/08/23 10:09:25;;;;;;;0.00;0.00;;;;;;;25.06;51.11;100518.31;7363814;19;21075;-63
2022/08/23 10:11:51;;;;;;;0.00;0.00;;;;;;;25.02;50.26;100511.50;7362307;19;20007;-63
2022/08/23 10:14:19;;;;;;;0.10;0.10;;;;;;;25.08;50.71;100516.34;7358435;19;20009;-63
2022/08/23 10:17:13;;;;;;;0.00;0.00;;;;;;;25.21;51.07;100515.28;7359322;19;20025;-63
2022/08/23 10:20:10;;;;;;;0.10;0.10;;;;;;;25.42;51.40;100516.09;7257921;19;2004575;-64
2022/08/23 10:22:48;;;;;;;0.00;0.00;;;;;;;25.69;51.64;100519.97;7261066;19;2004135;-63
2022/08/23 10:25:19;;;;;;;0.00;0.00;;;;;;;26.05;50.54;100516.69;7360514;19;20003;-63
2022/08/23 10:30:48;;;;;;;0.00;0.00;;;;;;;26.76;47.76;100518.25;7258822;19;2004485;-63
2022/08/23 10:33:26;;;;;;;0.10;0.10;;;;;;;27.01;46.65;100514.09;7361233;19;20052;-63
2022/08/23 10:36:01;;;;;;;0.00;0.00;;;;;;;27.37;47.84;100515.13;7362033;19;20014;-63
2022/08/23 10:38:44;;;;;;;0.10;0.10;;;;;;;27.84;47.83;100507.03;7363703;19;20016;-64
2022/08/23 10:41:15;;;;;;;0.10;0.10;;;;;;;28.30;46.23;100497.09;7361448;19;20014;-63
2022/08/23 10:44:00;;;;;;;0.10;0.10;;;;;;;28.74;45.33;100500.66;7362140;19;20013;-63
2022/08/23 10:46:29;;;;;;;0.00;0.00;;;;;;;29.12;41.56;100510.16;7361130;19;20013;-63
2022/08/23 10:49:00;;;;;;;0.00;0.00;;;;;;;29.45;41.37;100499.53;7362708;19;20011;-63
2022/08/23 10:51:33;;;;;;;0.00;0.00;;;;;;;29.70;38.91;100508.59;7360548;19;20011;-64
2022/08/23 10:54:34;;;;;;;0.00;0.00;;;;;;;30.29;44.24;100503.19;7364385;19;20082;-64
2022/08/23 10:57:01;;;;;;;0.10;0.10;;;;;;;30.57;39.15;100518.03;7249465;19;2004209;-64
2022/08/23 10:59:29;;;;;;;0.03;0.03;;;;;;;30.87;37.10;100507.53;7362820;19;20768;-63
2022/08/23 11:02:13;;;;;;;0.00;0.00;;;;;;;31.22;41.52;100511.69;7361407;19;20010;-63
2022/08/23 11:04:41;;;;;;;0.00;0.00;;;;;;;31.13;37.93;100516.28;7360338;19;20511;-64
2022/08/23 11:07:33;;;;;;;0.00;0.00;;;;;;;31.18;39.38;100516.59;7362535;19;20014;-63
2022/08/23 11:10:04;;;;;;;0.00;0.00;;;;;;;30.95;38.88;100508.38;7362055;19;20022;-64
2022/08/23 11:12:32;;;;;;;0.10;0.10;;;;;;;30.70;37.35;100510.28;7361844;19;20007;-63
2022/08/23 11:15:09;;;;;;;0.00;0.00;;;;;;;30.65;38.93;100509.06;7356454;19;20015;-63
2022/08/23 11:17:49;;;;;;;0.08;0.08;;;;;;;30.77;38.98;100517.69;7360587;19;20022;-63
2022/08/23 11:20:49;;;;;;;0.10;0.10;;;;;;;30.96;39.11;100509.22;7360311;19;20014;-63
2022/08/23 11:23:30;;;;;;;0.03;0.03;;;;;;;30.87;35.09;100510.25;7258172;19;2004190;-63
2022/08/23 11:25:56;;;;;;;0.10;0.10;;;;;;;30.83;36.26;100523.25;7362225;19;20006;-63
2022/08/23 11:28:24;;;;;;;0.10;0.10;;;;;;;30.87;36.77;100524.59;7361395;19;20027;-63
2022/08/23 11:30:59;;;;;;;0.10;0.10;;;;;;;31.01;38.37;100496.91;7361402;19;20094;-64
2022/08/23 11:33:42;;;;;;;0.10;0.10;;;;;;;31.37;39.20;100509.13;7362018;19;20010;-63
2022/08/23 11:36:07;;;;;;;0.00;0.00;;;;;;;31.65;35.35;100512.22;7357591;19;20010;-63
2022/08/23 11:38:47;;;;;;;0.13;0.13;;;;;;;32.22;38.48;100499.22;7357791;19;20030;-63
2022/08/23 11:41:19;;;;;;;0.03;0.03;;;;;;;32.72;38.14;100500.50;7360895;19;20471;-63
2022/08/23 11:43:48;;;;;;;0.00;0.00;;;;;;;33.21;33.70;100491.91;7361502;19;20010;-62
2022/08/23 11:46:16;;;;;;;0.00;0.00;;;;;;;33.63;32.94;100503.94;7363419;19;20679;-61
2022/08/23 11:48:48;;;;;;;0.00;0.00;;;;;;;34.08;32.43;100497.38;7368069;19;20022;-61